createdAt,value
2023-04-16T00:09:10.246Z,17
2023-04-16T00:19:10.444Z,14
2023-04-16T00:29:10.189Z,9
2023-04-16T00:39:10.029Z,1
2023-04-16T00:49:09.914Z,1
2023-04-16T00:59:10.107Z,1
2023-04-16T01:09:09.797Z,1
2023-04-16T01:19:09.838Z,1
2023-04-16T01:29:09.738Z,1
2023-04-16T01:39:09.704Z,1
2023-04-16T01:49:09.642Z,1
2023-04-16T01:59:09.530Z,1
2023-04-16T02:09:09.377Z,1
2023-04-16T02:19:09.738Z,1
2023-04-16T02:29:09.337Z,1
2023-04-16T02:39:09.327Z,1
2023-04-16T02:49:09.178Z,10
2023-04-16T02:59:09.121Z,19
2023-04-16T03:09:09.132Z,16
2023-04-16T03:19:09.175Z,22
2023-04-16T03:29:08.902Z,26
2023-04-16T03:39:09.030Z,39
2023-04-16T03:49:08.833Z,52
2023-04-16T03:59:08.759Z,34
2023-04-16T04:09:08.684Z,38
2023-04-16T04:19:08.555Z,42
2023-04-16T04:29:08.556Z,51
2023-04-16T04:39:08.575Z,60
2023-04-16T04:49:08.428Z,62
2023-04-16T04:59:08.418Z,70
2023-04-16T05:09:08.186Z,81
2023-04-16T05:19:08.307Z,91
2023-04-16T05:29:07.963Z,99
2023-04-16T05:39:08.032Z,99
2023-04-16T05:49:08.082Z,99
2023-04-16T05:59:08.128Z,99
2023-04-16T06:09:07.706Z,99
2023-04-16T06:19:07.559Z,99
2023-04-16T06:29:07.762Z,99
2023-04-16T06:39:07.452Z,99
2023-04-16T06:49:07.460Z,99
2023-04-16T06:59:07.356Z,99
2023-04-16T07:09:07.138Z,99
2023-04-16T07:19:07.096Z,99
2023-04-16T07:29:07.085Z,99
2023-04-16T07:39:06.875Z,99
2023-04-16T07:49:06.846Z,99
2023-04-16T07:59:21.166Z,1
2023-04-16T08:09:06.684Z,1
2023-04-16T08:19:06.617Z,1
2023-04-16T08:29:06.500Z,1
2023-04-16T08:39:06.613Z,1
2023-04-16T08:49:06.478Z,1
2023-04-16T08:59:06.444Z,1
2023-04-16T09:09:06.306Z,1
2023-04-16T09:19:06.350Z,1
2023-04-16T09:29:06.413Z,1
2023-04-16T09:39:06.036Z,1
2023-04-16T09:49:06.057Z,1
2023-04-16T09:59:05.958Z,1
2023-04-16T10:09:05.877Z,1
2023-04-16T10:19:05.774Z,1
2023-04-16T10:29:05.740Z,1
2023-04-16T10:39:05.724Z,1
2023-04-16T10:49:05.606Z,1
2023-04-16T10:59:05.562Z,1
2023-04-16T11:09:05.612Z,1
2023-04-16T11:19:07.774Z,1
2023-04-16T11:29:05.277Z,1
2023-04-16T11:39:05.282Z,1
2023-04-16T11:49:05.158Z,1
2023-04-16T11:59:05.099Z,1
2023-04-16T12:09:05.004Z,1
2023-04-16T12:19:04.933Z,1
2023-04-16T12:29:04.874Z,1
2023-04-16T12:39:04.780Z,1
2023-04-16T12:49:04.782Z,1
2023-04-16T12:59:04.683Z,1
2023-04-16T13:09:04.660Z,1
2023-04-16T13:19:04.572Z,1
2023-04-16T13:29:04.516Z,1
2023-04-16T13:39:04.347Z,1
2023-04-16T13:49:04.270Z,1
2023-04-16T13:59:04.214Z,1
2023-04-16T14:09:04.131Z,1
2023-04-16T14:19:04.071Z,1
2023-04-16T14:29:04.086Z,1
2023-04-16T14:39:04.033Z,1
2023-04-16T14:49:03.939Z,1
2023-04-16T14:59:03.818Z,1
2023-04-16T15:09:03.808Z,1
2023-04-16T15:19:05.159Z,1
2023-04-16T15:29:03.605Z,1
2023-04-16T15:39:03.729Z,1
2023-04-16T15:49:03.591Z,1
2023-04-16T15:59:03.408Z,1
2023-04-16T16:09:03.393Z,1
2023-04-16T16:19:03.402Z,1
2023-04-16T16:29:03.179Z,1
2023-04-16T16:39:03.165Z,1
2023-04-16T16:49:03.131Z,1
2023-04-16T16:59:03.009Z,1
2023-04-16T17:09:02.932Z,1
2023-04-16T17:19:02.859Z,1
2023-04-16T17:29:02.794Z,1
2023-04-16T17:39:02.705Z,1
2023-04-16T17:49:02.685Z,1
2023-04-16T17:59:02.646Z,1
2023-04-16T18:09:02.699Z,1
2023-04-16T18:19:02.472Z,1
2023-04-16T18:29:03.057Z,1
2023-04-16T18:39:02.751Z,1
2023-04-16T18:49:02.218Z,1
2023-04-16T18:59:02.237Z,1
2023-04-16T19:09:02.189Z,1
2023-04-16T19:19:02.156Z,1
2023-04-16T19:29:01.959Z,1
2023-04-16T19:39:01.966Z,1
2023-04-16T19:49:01.892Z,1
2023-04-16T19:59:01.863Z,1
2023-04-16T20:09:01.697Z,1
2023-04-16T20:19:04.185Z,1
2023-04-16T20:29:01.710Z,1
2023-04-16T20:39:01.563Z,1
2023-04-16T20:49:01.510Z,1
2023-04-16T20:59:01.376Z,1
2023-04-16T21:09:01.268Z,1
2023-04-16T21:19:01.297Z,1
2023-04-16T21:29:01.145Z,1
2023-04-16T21:39:01.170Z,1
2023-04-16T21:49:01.093Z,1
2023-04-16T21:59:01.052Z,99
2023-04-16T22:09:00.938Z,99
2023-04-16T22:19:00.831Z,99
2023-04-16T22:29:00.751Z,99
2023-04-16T22:39:00.739Z,99
2023-04-16T22:49:00.651Z,72
2023-04-16T22:59:00.513Z,51
2023-04-16T23:09:00.559Z,30
2023-04-16T23:19:00.357Z,31
2023-04-16T23:29:00.321Z,20
2023-04-16T23:39:00.293Z,5
2023-04-16T23:49:00.157Z,7
2023-04-16T23:59:00.110Z,1
